Time;durP1;ratioP1;P1;durP2;ratioP2;P2;SDS_P1;SDS_P2;PMS_P1;PMS_P2;Temp;Humidity;BMP_temperature;BMP_pressure;BME280_temperature;BME280_humidity;BME280_pressure;Samples;Min_cycle;Max_cycle;Signal;HPM_P1;HPM_P2
2021/01/10 00:01:14;;;;;;;;;;;;;;;19.98;60.23;101403.13;5040862;28;1659;-58
2021/01/10 00:03:41;;;;;;;;;;;;;;;19.97;60.32;101419.34;5038444;28;1483;-67
2021/01/10 00:06:06;;;;;;;;;;;;;;;19.93;60.67;101434.00;5044318;28;1351;-63
2021/01/10 00:08:32;;;;;;;;;;;;;;;19.92;60.28;101437.69;5042569;28;1657;-67
2021/01/10 00:10:57;;;;;;;;;;;;;;;19.90;60.17;101431.56;5038630;28;1522;-58
2021/01/10 00:13:22;;;;;;;;;;;;;;;19.86;60.41;101426.44;5037352;28;1715;-67
2021/01/10 00:15:48;;;;;;;;;;;;;;;19.85;59.79;101414.00;5045946;28;1697;-67
2021/01/10 00:18:13;;;;;;;;;;;;;;;19.86;59.58;101423.75;5042062;28;1975;-58
2021/01/10 00:20:39;;;;;;;;;;;;;;;19.83;59.48;101431.19;5035871;28;1598;-67
2021/01/10 00:23:04;;;;;;;;;;;;;;;19.81;59.27;101439.38;5037490;28;1617;-67
2021/01/10 00:25:30;;;;;;;;;;;;;;;19.80;59.46;101440.38;5046124;28;1723;-67
2021/01/10 00:27:55;;;;;;;;;;;;;;;19.77;59.32;101453.19;5035760;28;1701;-67
2021/01/10 00:30:21;;;;;;;;;;;;;;;19.70;59.40;101447.44;5035089;28;1760;-58
2021/01/10 00:32:47;;;;;;;;;;;;;;;19.74;59.66;101442.72;5037350;28;1639;-67
2021/01/10 00:35:13;;;;;;;;;;;;;;;19.71;59.42;101453.63;5043930;28;1621;-67
2021/01/10 00:37:38;;;;;;;;;;;;;;;19.71;59.32;101459.88;5046287;28;1882;-59
2021/01/10 00:40:04;;;;;;;;;;;;;;;19.68;59.35;101460.13;5038064;28;1652;-57
2021/01/10 00:42:29;;;;;;;;;;;;;;;19.66;59.18;101472.81;5026876;28;1681;-67
2021/01/10 00:44:55;;;;;;;;;;;;;;;19.61;59.06;101465.09;5046433;28;1689;-67
2021/01/10 00:47:22;;;;;;;;;;;;;;;19.64;59.25;101462.19;5038288;28;2525;-58
2021/01/10 00:49:48;;;;;;;;;;;;;;;19.64;58.93;101466.72;5046130;28;1688;-67
2021/01/10 00:52:13;;;;;;;;;;;;;;;19.62;58.83;101464.13;5044940;28;1577;-57
2021/01/10 00:54:39;;;;;;;;;;;;;;;19.61;59.00;101470.47;5041425;28;1605;-67
2021/01/10 00:57:11;;;;;;;;;;;;;;;19.61;58.73;101469.63;5039100;28;1886;-67
2021/01/10 00:59:37;;;;;;;;;;;;;;;19.56;58.88;101434.28;5037597;28;1371;-67
2021/01/10 01:02:03;;;;;;;;;;;;;;;19.59;58.78;101455.47;5040203;28;1449;-57
2021/01/10 01:04:28;;;;;;;;;;;;;;;19.58;58.69;101451.94;5040277;28;1759;-67
2021/01/10 01:06:53;;;;;;;;;;;;;;;19.53;58.49;101455.97;5040176;28;1362;-57
2021/01/10 01:09:19;;;;;;;;;;;;;;;19.53;58.61;101464.00;5041853;28;1413;-67
2021/01/10 01:11:44;;;;;;;;;;;;;;;19.55;58.58;101470.09;5038640;28;1441;-67
2021/01/10 01:14:10;;;;;;;;;;;;;;;19.51;58.42;101457.91;5039797;28;1739;-67
2021/01/10 01:16:37;;;;;;;;;;;;;;;19.47;58.62;101443.88;5041121;28;1910;-67
2021/01/10 01:19:02;;;;;;;;;;;;;;;19.47;58.44;101458.16;5037184;28;1468;-66
2021/01/10 01:21:28;;;;;;;;;;;;;;;19.55;58.98;101475.47;5033868;28;1602;-58
2021/01/10 01:23:53;;;;;;;;;;;;;;;19.55;59.12;101486.22;5034677;28;1524;-67
2021/01/10 01:26:19;;;;;;;;;;;;;;;19.57;59.18;101457.44;5034244;28;1839;-67
2021/01/10 01:28:45;;;;;;;;;;;;;;;19.56;59.37;101445.84;5033985;28;1692;-58
2021/01/10 01:31:11;;;;;;;;;;;;;;;19.54;59.04;101444.28;5034254;28;1681;-58
2021/01/10 01:33:37;;;;;;;;;;;;;;;19.52;58.91;101457.81;5033852;28;1820;-67
2021/01/10 01:36:02;;;;;;;;;;;;;;;19.53;58.90;101440.72;5034649;28;1725;-57
2021/01/10 01:38:28;;;;;;;;;;;;;;;19.52;58.72;101443.50;5034359;28;1959;-57
2021/01/10 01:40:59;;;;;;;;;;;;;;;19.48;58.48;101427.69;5034696;28;1749;-59
2021/01/10 01:43:25;;;;;;;;;;;;;;;19.47;58.37;101425.97;5034298;28;1714;-58
2021/01/10 01:45:50;;;;;;;;;;;;;;;19.47;58.48;101431.31;5025843;28;1768;-67
2021/01/10 01:48:16;;;;;;;;;;;;;;;19.46;58.33;101435.00;5034185;28;1747;-67
2021/01/10 01:50:41;;;;;;;;;;;;;;;19.47;58.26;101462.66;5034665;28;1602;-58
2021/01/10 01:53:06;;;;;;;;;;;;;;;19.44;58.28;101446.84;5033874;28;1776;-57
2021/01/10 01:55:32;;;;;;;;;;;;;;;19.42;58.07;101455.00;5034181;28;1713;-65
2021/01/10 01:57:58;;;;;;;;;;;;;;;19.44;58.11;101457.56;5033939;28;1898;-66
2021/01/10 02:00:23;;;;;;;;;;;;;;;19.43;58.06;101451.31;5033229;28;1693;-58
2021/01/10 02:02:48;;;;;;;;;;;;;;;19.44;58.01;101446.84;5033857;28;1760;-58
2021/01/10 02:05:16;;;;;;;;;;;;;;;19.42;57.79;101455.00;5033750;28;1918;-57
2021/01/10 02:07:41;;;;;;;;;;;;;;;19.42;57.72;101446.09;5033954;28;1701;-58
2021/01/10 02:10:12;;;;;;;;;;;;;;;19.44;57.71;101468.28;5033335;28;1673;-58
2021/01/10 02:12:44;;;;;;;;;;;;;;;19.41;57.76;101469.38;5033840;28;1643;-66
2021/01/10 02:15:12;;;;;;;;;;;;;;;19.37;57.69;101462.53;5037239;28;1745;-58
2021/01/10 02:17:38;;;;;;;;;;;;;;;19.38;57.74;101480.34;5046605;28;1993;-66
2021/01/10 02:20:06;;;;;;;;;;;;;;;19.37;57.50;101448.28;5044554;28;1719;-58
2021/01/10 02:22:32;;;;;;;;;;;;;;;19.35;57.04;101452.91;5042134;28;1570;-66
2021/01/10 02:24:58;;;;;;;;;;;;;;;19.36;57.55;101450.13;5046603;28;1744;-58
2021/01/10 02:27:24;;;;;;;;;;;;;;;19.36;57.37;101450.13;5039591;28;1752;-64
2021/01/10 02:29:50;;;;;;;;;;;;;;;19.37;57.58;101465.22;5044116;28;1823;-66
2021/01/10 02:32:18;;;;;;;;;;;;;;;19.36;57.31;101449.25;5042882;28;1720;-58
2021/01/10 02:34:43;;;;;;;;;;;;;;;19.33;57.24;101447.66;5041540;28;1660;-66
2021/01/10 02:37:11;;;;;;;;;;;;;;;19.31;57.65;101462.19;5041356;28;1893;-67
2021/01/10 02:40:06;;;;;;;;;;;;;;;19.36;57.58;101457.28;5041372;28;1749;-62
2021/01/10 02:42:34;;;;;;;;;;;;;;;19.39;57.42;101443.66;5030045;28;1766;-67
2021/01/10 02:45:20;;;;;;;;;;;;;;;19.40;57.34;101450.75;5047836;28;1659;-58
2021/01/10 02:47:46;;;;;;;;;;;;;;;19.35;57.26;101461.81;5040867;28;2553;-67
2021/01/10 02:50:17;;;;;;;;;;;;;;;19.39;57.26;101471.31;5046919;28;1622;-67
2021/01/10 02:52:44;;;;;;;;;;;;;;;19.34;57.20;101467.28;5049499;28;1831;-63
2021/01/10 02:55:10;;;;;;;;;;;;;;;19.32;57.19;101471.91;5047486;28;1703;-58
2021/01/10 02:57:38;;;;;;;;;;;;;;;19.33;57.00;101461.06;5049392;28;1890;-58
2021/01/10 03:02:45;;;;;;;;;;;;;;;19.33;57.29;101455.72;4322991;26;1896;-49
2021/01/10 03:05:11;;;;;;;;;;;;;;;19.31;57.08;101441.56;5061867;28;1707;-49
2021/01/10 03:07:38;;;;;;;;;;;;;;;19.26;57.03;101435.72;5064938;28;2637;-49
2021/01/10 03:12:37;;;;;;;;;;;;;;;19.31;56.91;101430.00;5059755;28;1965;-66
2021/01/10 03:15:03;;;;;;;;;;;;;;;19.28;57.18;101426.59;5067632;28;1835;-66
2021/01/10 03:17:40;;;;;;;;;;;;;;;19.31;56.75;101446.09;5054903;28;1927;-57
2021/01/10 03:20:10;;;;;;;;;;;;;;;19.24;57.32;101451.94;5072914;28;1715;-67
2021/01/10 03:22:35;;;;;;;;;;;;;;;19.01;59.70;101452.88;5064805;28;1853;-57
2021/01/10 03:25:02;;;;;;;;;;;;;;;18.87;60.12;101461.97;5070015;28;1822;-67
2021/01/10 03:27:27;;;;;;;;;;;;;;;18.79;60.98;101457.19;5063303;28;1668;-57
2021/01/10 03:29:53;;;;;;;;;;;;;;;18.76;60.66;101461.91;5069810;28;1834;-65
2021/01/10 03:32:19;;;;;;;;;;;;;;;18.70;61.40;101471.25;5065340;28;1695;-66
2021/01/10 03:34:44;;;;;;;;;;;;;;;18.66;61.40;101465.31;5066612;28;1584;-66
2021/01/10 03:37:10;;;;;;;;;;;;;;;18.64;61.89;101467.25;5058660;28;2335;-66
2021/01/10 03:39:35;;;;;;;;;;;;;;;18.62;61.90;101466.50;5061926;28;1542;-66
2021/01/10 03:42:00;;;;;;;;;;;;;;;18.63;62.22;101470.88;5071927;28;1549;-58
2021/01/10 03:44:26;;;;;;;;;;;;;;;18.58;62.18;101459.66;5039924;28;1619;-63
2021/01/10 03:46:51;;;;;;;;;;;;;;;18.57;62.44;101463.31;5042611;28;1712;-66
2021/01/10 03:49:17;;;;;;;;;;;;;;;18.58;62.20;101475.75;5048736;28;1772;-57
2021/01/10 03:51:42;;;;;;;;;;;;;;;18.58;63.54;101485.56;5063499;28;1565;-66
2021/01/10 03:54:08;;;;;;;;;;;;;;;18.61;63.59;101474.66;5058266;28;1337;-66
2021/01/10 03:56:33;;;;;;;;;;;;;;;18.59;63.24;101461.38;5063654;28;1546;-66
2021/01/10 03:58:59;;;;;;;;;;;;;;;18.57;63.02;101468.66;5058918;28;1882;-64
2021/01/10 04:01:24;;;;;;;;;;;;;;;18.60;63.63;101467.56;5058907;28;1509;-66
2021/01/10 04:03:49;;;;;;;;;;;;;;;18.61;64.07;101474.66;5027459;28;11223;-66
2021/01/10 04:06:15;;;;;;;;;;;;;;;18.59;63.44;101488.16;5038512;28;1322;-58
2021/01/10 04:08:40;;;;;;;;;;;;;;;18.56;63.49;101482.16;5032951;28;1330;-58
2021/01/10 04:11:05;;;;;;;;;;;;;;;18.54;63.70;101476.06;5043459;28;1553;-66
2021/01/10 04:13:31;;;;;;;;;;;;;;;18.51;63.13;101479.84;5046660;28;1588;-57
2021/01/10 04:15:56;;;;;;;;;;;;;;;18.50;63.86;101483.47;5054607;28;1562;-65
2021/01/10 04:18:21;;;;;;;;;;;;;;;18.50;63.57;101478.13;5046150;28;1914;-57
2021/01/10 04:20:47;;;;;;;;;;;;;;;18.50;63.81;101464.72;5047125;28;1752;-57
2021/01/10 04:23:12;;;;;;;;;;;;;;;18.47;63.38;101456.94;5040958;28;1439;-66
2021/01/10 04:25:37;;;;;;;;;;;;;;;18.51;63.86;101463.75;5034454;28;1325;-58
2021/01/10 04:28:03;;;;;;;;;;;;;;;18.53;63.84;101472.53;5016360;28;1260;-66
2021/01/10 04:30:28;;;;;;;;;;;;;;;18.63;63.58;101481.59;5033806;28;1197;-57
2021/01/10 04:32:54;;;;;;;;;;;;;;;18.62;63.23;101505.81;5034106;28;1068;-57
2021/01/10 04:35:19;;;;;;;;;;;;;;;18.63;62.98;101488.78;5033464;28;1179;-58
2021/01/10 04:37:45;;;;;;;;;;;;;;;18.66;63.19;101478.69;5037126;28;1952;-58
2021/01/10 04:40:10;;;;;;;;;;;;;;;18.69;62.26;101478.44;5042397;28;1553;-66
2021/01/10 04:42:37;;;;;;;;;;;;;;;18.75;62.67;101482.50;5042185;28;1509;-65
2021/01/10 04:45:02;;;;;;;;;;;;;;;18.75;62.53;101495.88;5042274;28;1422;-58
2021/01/10 04:47:28;;;;;;;;;;;;;;;18.79;62.46;101501.88;5039076;28;1739;-66
2021/01/10 04:49:53;;;;;;;;;;;;;;;18.85;62.34;101507.63;5041174;28;1542;-66
2021/01/10 04:52:20;;;;;;;;;;;;;;;18.88;62.47;101510.09;5042666;28;1483;-58
2021/01/10 04:54:46;;;;;;;;;;;;;;;18.92;62.43;101509.84;5050574;28;1608;-66
2021/01/10 04:57:12;;;;;;;;;;;;;;;18.94;62.35;101500.75;5049066;28;1885;-66
2021/01/10 04:59:41;;;;;;;;;;;;;;;18.94;62.28;101481.09;5047345;28;1609;-66
2021/01/10 05:02:07;;;;;;;;;;;;;;;18.96;62.58;101479.16;5047106;28;1558;-58
2021/01/10 05:04:33;;;;;;;;;;;;;;;18.99;62.35;101468.22;5018973;28;1594;-66
2021/01/10 05:06:59;;;;;;;;;;;;;;;19.03;62.46;101502.69;5040469;28;1506;-65
2021/01/10 05:09:24;;;;;;;;;;;;;;;19.00;62.57;101486.00;5032241;28;2521;-66
2021/01/10 05:11:50;;;;;;;;;;;;;;;18.99;62.31;101479.78;5017927;28;624699;-66
2021/01/10 05:14:15;;;;;;;;;;;;;;;19.02;62.39;101492.09;5040032;28;1585;-67
2021/01/10 05:16:41;;;;;;;;;;;;;;;19.03;62.64;101513.41;5037822;28;1914;-58
2021/01/10 05:19:07;;;;;;;;;;;;;;;19.00;62.31;101524.41;5051066;28;1553;-66
2021/01/10 05:21:32;;;;;;;;;;;;;;;19.00;62.37;101532.44;5050645;28;1495;-66
2021/01/10 05:23:58;;;;;;;;;;;;;;;18.99;62.01;101532.53;5040485;28;1542;-66
2021/01/10 05:26:30;;;;;;;;;;;;;;;18.98;62.30;101528.16;5036876;28;1738;-66
2021/01/10 05:28:57;;;;;;;;;;;;;;;18.95;61.94;101520.34;5044172;28;1412;-57
2021/01/10 05:31:39;;;;;;;;;;;;;;;18.92;61.87;101537.53;5018632;28;1610;-66
2021/01/10 05:34:04;;;;;;;;;;;;;;;18.91;62.07;101530.44;5047472;28;1561;-58
2021/01/10 05:36:30;;;;;;;;;;;;;;;18.94;62.03;101519.50;5048223;28;1836;-58
2021/01/10 05:38:56;;;;;;;;;;;;;;;18.93;61.93;101514.25;5051130;28;1957;-66
2021/01/10 05:41:23;;;;;;;;;;;;;;;18.93;62.22;101506.22;5045929;28;1474;-66
2021/01/10 05:44:02;;;;;;;;;;;;;;;18.89;62.38;101513.63;5045730;28;1546;-58
2021/01/10 05:46:30;;;;;;;;;;;;;;;18.90;62.14;101515.34;5048376;28;1565;-58
2021/01/10 05:48:56;;;;;;;;;;;;;;;18.91;61.79;101521.56;5041511;28;1597;-66
2021/01/10 05:51:24;;;;;;;;;;;;;;;18.89;62.11;101521.66;5045315;28;1746;-58
2021/01/10 05:53:50;;;;;;;;;;;;;;;18.88;62.10;101514.63;5045615;28;1538;-66
2021/01/10 05:56:17;;;;;;;;;;;;;;;18.90;62.18;101522.50;5038107;28;1593;-58
2021/01/10 05:58:42;;;;;;;;;;;;;;;18.88;61.75;101519.97;5047770;28;1965;-58
2021/01/10 06:01:12;;;;;;;;;;;;;;;18.90;62.23;101543.97;5041569;28;1601;-58
2021/01/10 06:03:38;;;;;;;;;;;;;;;18.89;62.10;101527.03;5036340;28;1582;-58
2021/01/10 06:06:04;;;;;;;;;;;;;;;18.88;61.89;101528.88;5035882;28;1568;-58
2021/01/10 06:08:29;;;;;;;;;;;;;;;18.87;61.83;101523.63;5054687;28;849;-66
2021/01/10 06:11:14;;;;;;;;;;;;;;;18.90;61.79;101560.91;5036694;28;1098;-66
2021/01/10 06:13:58;;;;;;;;;;;;;;;18.91;61.80;101551.88;5054441;28;887;-66
2021/01/10 06:16:27;;;;;;;;;;;;;;;18.88;61.77;101560.19;5033623;28;726;-58
2021/01/10 06:18:54;;;;;;;;;;;;;;;18.85;61.90;101552.34;5034282;28;1969;-66
2021/01/10 06:21:20;;;;;;;;;;;;;;;18.86;62.15;101559.41;5034442;28;801;-65
2021/01/10 06:23:47;;;;;;;;;;;;;;;18.87;62.18;101555.78;5034371;28;834;-57
2021/01/10 06:26:13;;;;;;;;;;;;;;;18.84;62.15;101550.63;5033648;28;1053;-58
2021/01/10 06:28:40;;;;;;;;;;;;;;;18.84;62.33;101562.22;5034306;28;1196;-57
2021/01/10 06:31:05;;;;;;;;;;;;;;;18.81;62.33;101557.09;5033827;28;1116;-57
2021/01/10 06:33:31;;;;;;;;;;;;;;;18.82;62.54;101561.50;5034297;28;1215;-66
2021/01/10 06:36:06;;;;;;;;;;;;;;;18.81;62.58;101566.94;5034146;28;1302;-58
2021/01/10 06:38:35;;;;;;;;;;;;;;;18.82;62.64;101572.22;5033024;28;1950;-58
2021/01/10 06:41:21;;;;;;;;;;;;;;;18.82;62.45;101563.28;5033571;28;1369;-66
2021/01/10 06:43:52;;;;;;;;;;;;;;;18.83;62.22;101554.28;5002672;28;1268;-58
2021/01/10 06:46:18;;;;;;;;;;;;;;;18.82;62.53;101572.22;5033597;28;1199;-66
2021/01/10 06:48:44;;;;;;;;;;;;;;;18.79;62.58;101555.47;5034036;28;1203;-66
2021/01/10 06:51:09;;;;;;;;;;;;;;;18.81;62.94;101561.59;5033560;28;1200;-66
2021/01/10 06:53:37;;;;;;;;;;;;;;;18.77;63.00;101568.13;5033628;28;1342;-66
2021/01/10 06:56:04;;;;;;;;;;;;;;;18.78;62.68;101561.78;5033797;28;1665;-65
2021/01/10 06:58:30;;;;;;;;;;;;;;;18.78;62.92;101551.06;5034264;28;1957;-66
2021/01/10 07:00:56;;;;;;;;;;;;;;;18.75;63.17;101576.25;5033678;28;1318;-58
2021/01/10 07:03:22;;;;;;;;;;;;;;;18.78;63.73;101588.56;5033606;28;1096;-65
2021/01/10 07:06:11;;;;;;;;;;;;;;;18.78;64.43;101583.22;5033705;28;1159;-66
2021/01/10 07:08:39;;;;;;;;;;;;;;;18.72;64.50;101578.31;5033625;28;1203;-66
2021/01/10 07:11:20;;;;;;;;;;;;;;;18.67;63.16;101582.19;5031857;28;2526;-58
2021/01/10 07:13:50;;;;;;;;;;;;;;;18.86;63.44;101594.25;5033756;28;813;-67
2021/01/10 07:16:19;;;;;;;;;;;;;;;18.91;63.04;101585.88;5033199;28;1191;-66
2021/01/10 07:18:51;;;;;;;;;;;;;;;18.90;62.97;101592.19;4335420;28;10000764;-67
2021/01/10 07:21:32;;;;;;;;;;;;;;;18.86;63.18;101596.94;5016426;28;1671;-57
2021/01/10 07:24:13;;;;;;;;;;;;;;;19.00;62.60;101594.09;5025606;28;1528;-57
2021/01/10 07:26:42;;;;;;;;;;;;;;;19.04;62.06;101584.84;5014474;28;1673;-67
2021/01/10 07:29:26;;;;;;;;;;;;;;;19.08;62.54;101591.69;5020997;28;1485;-68
2021/01/10 07:31:55;;;;;;;;;;;;;;;19.02;62.47;101583.22;5031631;28;1585;-70
2021/01/10 07:34:20;;;;;;;;;;;;;;;19.07;62.50;101576.56;5025660;28;1422;-57
2021/01/10 07:36:46;;;;;;;;;;;;;;;19.02;62.70;101559.09;5017501;28;1425;-68
2021/01/10 07:39:12;;;;;;;;;;;;;;;18.99;62.73;101564.72;5025048;28;1437;-68
2021/01/10 07:41:37;;;;;;;;;;;;;;;18.99;62.82;101578.13;5024457;28;1555;-68
2021/01/10 07:44:03;;;;;;;;;;;;;;;18.98;62.79;101584.44;5025087;28;1546;-57
2021/01/10 07:46:47;;;;;;;;;;;;;;;18.95;63.08;101579.31;5026612;28;1682;-68
2021/01/10 07:49:13;;;;;;;;;;;;;;;18.92;63.09;101585.78;5028110;28;1825;-68
2021/01/10 07:51:44;;;;;;;;;;;;;;;18.95;63.31;101584.69;5026980;28;1921;-57
2021/01/10 07:54:09;;;;;;;;;;;;;;;18.90;63.23;101587.72;5024618;28;1915;-57
2021/01/10 07:56:35;;;;;;;;;;;;;;;18.90;63.38;101592.19;5024959;28;1581;-57
2021/01/10 07:59:14;;;;;;;;;;;;;;;18.86;63.43;101584.41;5022672;28;1989;-68
2021/01/10 08:01:45;;;;;;;;;;;;;;;18.86;63.59;101584.41;5025211;28;1834;-67
2021/01/10 08:04:11;;;;;;;;;;;;;;;18.56;63.68;101533.94;5022871;28;1734;-57
2021/01/10 08:06:59;;;;;;;;;;;;;;;18.85;63.91;101574.63;5022984;28;1888;-57
2021/01/10 08:09:32;;;;;;;;;;;;;;;18.81;63.78;101589.25;5025933;28;1643;-67
2021/01/10 08:11:58;;;;;;;;;;;;;;;18.80;64.01;101575.94;5025165;28;1630;-57
2021/01/10 08:14:23;;;;;;;;;;;;;;;18.80;64.03;101584.88;5024157;28;1736;-67
2021/01/10 08:16:49;;;;;;;;;;;;;;;18.45;63.64;101517.78;5025378;28;2005;-67
2021/01/10 08:19:15;;;;;;;;;;;;;;;18.81;64.44;101580.34;5021703;28;2727;-57
2021/01/10 08:21:40;;;;;;;;;;;;;;;18.91;64.53;101601.97;5017260;28;1529;-58
2021/01/10 08:24:06;;;;;;;;;;;;;;;18.92;63.87;101593.81;5031489;28;1677;-67
2021/01/10 08:26:39;;;;;;;;;;;;;;;18.94;64.47;101599.91;5033933;28;1474;-58
2021/01/10 08:29:06;;;;;;;;;;;;;;;18.87;63.94;101593.28;5030202;28;1542;-68
2021/01/10 08:31:32;;;;;;;;;;;;;;;18.86;64.23;101604.97;5031773;28;1338;-68
2021/01/10 08:34:01;;;;;;;;;;;;;;;18.86;64.03;101595.13;5031617;28;1483;-58
2021/01/10 08:36:26;;;;;;;;;;;;;;;18.85;64.53;101601.44;5032205;28;1376;-68
2021/01/10 08:38:54;;;;;;;;;;;;;;;18.47;64.21;101540.81;5030137;28;1969;-67
2021/01/10 08:41:42;;;;;;;;;;;;;;;18.83;64.17;101599.84;5031196;28;1600;-64
2021/01/10 08:44:11;;;;;;;;;;;;;;;18.83;63.94;101583.78;5032854;28;1467;-58
2021/01/10 08:46:38;;;;;;;;;;;;;;;18.82;64.10;101579.38;5032119;28;1372;-68
2021/01/10 08:49:04;;;;;;;;;;;;;;;18.82;64.07;101571.31;5033262;28;1630;-58
2021/01/10 08:51:39;;;;;;;;;;;;;;;18.81;63.99;101577.66;5026389;28;1465;-57
2021/01/10 08:54:20;;;;;;;;;;;;;;;18.85;64.04;101595.22;5015382;28;1427;-67
2021/01/10 08:56:49;;;;;;;;;;;;;;;18.89;63.61;101602.06;5030678;28;1358;-58
2021/01/10 08:59:14;;;;;;;;;;;;;;;18.92;63.68;101585.78;5029354;28;1593;-58
2021/01/10 09:01:40;;;;;;;;;;;;;;;18.90;63.67;101585.03;5032063;28;1561;-67
2021/01/10 09:04:06;;;;;;;;;;;;;;;18.93;63.29;101592.81;5031113;28;1367;-67
2021/01/10 09:06:38;;;;;;;;;;;;;;;18.89;63.67;101594.03;5030060;28;1455;-67
2021/01/10 09:09:18;;;;;;;;;;;;;;;18.92;63.66;101577.72;5034804;28;1605;-58
2021/01/10 09:11:46;;;;;;;;;;;;;;;18.85;63.87;101574.63;5026237;28;2664;-67
2021/01/10 09:14:14;;;;;;;;;;;;;;;18.84;63.64;101572.94;5035824;28;1448;-68
2021/01/10 09:16:40;;;;;;;;;;;;;;;18.83;63.95;101591.81;5023646;28;11431;-58
2021/01/10 09:19:07;;;;;;;;;;;;;;;18.78;63.58;101580.53;5027924;28;1926;-58
2021/01/10 09:21:32;;;;;;;;;;;;;;;18.77;64.04;101597.59;5029713;28;1404;-58
2021/01/10 09:23:58;;;;;;;;;;;;;;;18.79;64.16;101601.91;5030417;28;1451;-67
2021/01/10 09:26:31;;;;;;;;;;;;;;;18.79;64.07;101607.25;5033008;28;1356;-68
2021/01/10 09:28:57;;;;;;;;;;;;;;;18.77;64.21;101592.25;5029732;28;1405;-62
2021/01/10 09:31:41;;;;;;;;;;;;;;;18.73;64.36;101580.03;5030808;28;1380;-67
2021/01/10 09:34:07;;;;;;;;;;;;;;;18.74;63.86;101587.97;5024198;28;970;-67
2021/01/10 09:36:32;;;;;;;;;;;;;;;18.73;64.51;101585.41;5013306;28;1586;-58
2021/01/10 09:38:58;;;;;;;;;;;;;;;18.82;64.40;101576.69;5032459;28;1885;-66
2021/01/10 09:41:23;;;;;;;;;;;;;;;18.84;65.14;101566.72;5025657;28;1444;-67
2021/01/10 09:43:53;;;;;;;;;;;;;;;18.87;64.88;101555.78;5029920;28;1176;-70
2021/01/10 09:46:32;;;;;;;;;;;;;;;18.90;64.55;101557.34;5030227;28;1471;-58
2021/01/10 09:49:02;;;;;;;;;;;;;;;18.80;64.22;101558.06;5031791;28;2684;-67
2021/01/10 09:51:35;;;;;;;;;;;;;;;18.78;64.51;101559.97;5028640;28;2336;-67
2021/01/10 09:54:17;;;;;;;;;;;;;;;18.86;64.42;101570.13;5028321;28;1853;-58
2021/01/10 09:56:56;;;;;;;;;;;;;;;18.82;64.00;101560.59;5030635;28;1382;-57
2021/01/10 09:59:35;;;;;;;;;;;;;;;18.87;63.91;101574.53;5026385;28;1398;-57
2021/01/10 10:02:06;;;;;;;;;;;;;;;18.88;64.22;101565.53;5026691;28;1499;-67
2021/01/10 10:04:31;;;;;;;;;;;;;;;18.92;64.36;101558.09;5011454;28;1637;-57
2021/01/10 10:06:57;;;;;;;;;;;;;;;18.91;64.09;101567.97;5026144;28;2503;-68
2021/01/10 10:09:22;;;;;;;;;;;;;;;18.95;63.83;101557.88;5032721;28;1506;-67
2021/01/10 10:11:49;;;;;;;;;;;;;;;18.97;63.67;101562.16;5027349;28;1481;-58
2021/01/10 10:14:15;;;;;;;;;;;;;;;19.04;63.57;101551.84;5029393;28;1403;-68
2021/01/10 10:16:41;;;;;;;;;;;;;;;19.15;63.63;101548.31;5028764;28;1478;-65
2021/01/10 10:19:07;;;;;;;;;;;;;;;19.16;63.65;101547.31;5035262;28;1969;-57
2021/01/10 10:21:32;;;;;;;;;;;;;;;19.20;63.54;101532.72;5032457;28;1443;-62
2021/01/10 10:23:57;;;;;;;;;;;;;;;19.15;63.80;101556.38;5031730;28;1443;-69
2021/01/10 10:26:23;;;;;;;;;;;;;;;19.13;63.92;101545.75;5034994;28;1585;-57
2021/01/10 10:28:48;;;;;;;;;;;;;;;19.05;63.66;101543.66;5034246;28;1358;-56
2021/01/10 10:31:14;;;;;;;;;;;;;;;19.09;63.89;101544.28;5031777;28;1470;-60
2021/01/10 10:33:39;;;;;;;;;;;;;;;19.11;63.52;101525.41;5028517;28;1736;-66
2021/01/10 10:36:05;;;;;;;;;;;;;;;19.15;63.41;101513.47;5032839;28;1636;-58
2021/01/10 10:38:31;;;;;;;;;;;;;;;19.11;63.65;101520.88;5030300;28;1882;-65
2021/01/10 10:40:56;;;;;;;;;;;;;;;19.25;64.68;101522.50;5017105;28;1427;-62
2021/01/10 10:43:22;;;;;;;;;;;;;;;19.41;65.44;101514.97;5032853;28;1981;-57
2021/01/10 10:45:47;;;;;;;;;;;;;;;19.40;65.03;101505.22;5033731;28;1494;-65
2021/01/10 10:48:12;;;;;;;;;;;;;;;19.32;65.18;101504.97;5034691;28;1610;-57
2021/01/10 10:50:38;;;;;;;;;;;;;;;19.28;65.08;101495.47;5031983;28;1628;-57
2021/01/10 10:53:05;;;;;;;;;;;;;;;19.28;65.99;101485.59;5035988;28;1311;-58
2021/01/10 10:55:30;;;;;;;;;;;;;;;19.35;65.56;101477.91;5025447;28;1624;-69
2021/01/10 10:57:56;;;;;;;;;;;;;;;19.31;64.99;101463.03;5038650;28;1890;-77
2021/01/10 11:00:21;;;;;;;;;;;;;;;19.14;64.84;101474.19;5011870;28;1451;-78
2021/01/10 11:02:46;;;;;;;;;;;;;;;19.20;65.50;101471.03;5014260;28;1498;-57
2021/01/10 11:05:12;;;;;;;;;;;;;;;19.25;65.62;101458.16;5020582;28;797;-68
2021/01/10 11:07:37;;;;;;;;;;;;;;;19.27;65.85;101461.56;5023246;28;1638;-78
2021/01/10 11:10:03;;;;;;;;;;;;;;;19.27;65.81;101462.41;5023943;28;1570;-59
2021/01/10 11:12:32;;;;;;;;;;;;;;;19.25;65.99;101463.50;5028152;28;1550;-59
2021/01/10 11:14:58;;;;;;;;;;;;;;;19.25;65.95;101458.16;5029167;28;1605;-79
2021/01/10 11:17:24;;;;;;;;;;;;;;;19.19;66.15;101459.47;5025590;28;1918;-59
2021/01/10 11:19:49;;;;;;;;;;;;;;;19.23;66.35;101465.47;5022926;28;1465;-71
2021/01/10 11:22:15;;;;;;;;;;;;;;;19.20;66.37;101461.19;5020213;28;1449;-73
2021/01/10 11:24:42;;;;;;;;;;;;;;;19.26;66.03;101459.88;5018838;28;1405;-70
2021/01/10 11:27:07;;;;;;;;;;;;;;;19.30;65.57;101466.69;5018183;28;1395;-72
2021/01/10 11:29:33;;;;;;;;;;;;;;;19.25;65.58;101468.88;5017288;28;1481;-58
2021/01/10 11:31:58;;;;;;;;;;;;;;;19.27;65.65;101454.38;5016885;28;1442;-68
2021/01/10 11:34:24;;;;;;;;;;;;;;;19.32;65.27;101469.22;5017329;28;1471;-59
2021/01/10 11:36:50;;;;;;;;;;;;;;;19.32;65.26;101456.69;5015847;28;1419;-58
2021/01/10 11:39:16;;;;;;;;;;;;;;;19.35;65.07;101471.69;5021428;28;1989;-72
2021/01/10 11:41:43;;;;;;;;;;;;;;;19.31;65.22;101446.09;5021464;28;1483;-58
2021/01/10 11:44:08;;;;;;;;;;;;;;;19.32;64.96;101464.75;5018416;28;1402;-68
2021/01/10 11:46:33;;;;;;;;;;;;;;;19.34;64.95;101457.44;5024088;28;955;-70
2021/01/10 11:48:59;;;;;;;;;;;;;;;19.33;64.98;101449.50;5022502;28;1456;-73
2021/01/10 11:51:25;;;;;;;;;;;;;;;19.34;64.68;101438.66;5020430;28;1384;-59
2021/01/10 11:53:51;;;;;;;;;;;;;;;19.32;65.04;101427.19;5013757;28;1504;-69
2021/01/10 11:56:16;;;;;;;;;;;;;;;19.39;64.83;101443.66;5022004;28;1426;-69
2021/01/10 11:58:41;;;;;;;;;;;;;;;19.34;64.54;101440.47;5011778;28;1894;-68
2021/01/10 12:01:07;;;;;;;;;;;;;;;19.39;64.76;101433.78;5011002;28;1779;-69
2021/01/10 12:03:32;;;;;;;;;;;;;;;19.36;64.73;101431.34;5021232;28;1477;-70
2021/01/10 12:05:58;;;;;;;;;;;;;;;19.32;64.76;101432.56;5017190;28;1438;-70
2021/01/10 12:08:23;;;;;;;;;;;;;;;19.30;64.89;101423.78;5019783;28;1361;-71
2021/01/10 12:10:49;;;;;;;;;;;;;;;19.29;64.71;101411.34;5018155;28;1590;-59
2021/01/10 12:13:14;;;;;;;;;;;;;;;19.26;64.85;101416.97;5016659;28;1441;-67
2021/01/10 12:15:40;;;;;;;;;;;;;;;19.23;64.65;101427.91;5019269;28;1419;-59
2021/01/10 12:18:06;;;;;;;;;;;;;;;19.21;64.94;101424.50;5015368;28;1962;-67
2021/01/10 12:20:32;;;;;;;;;;;;;;;19.23;64.95;101433.28;5018397;28;1477;-67
2021/01/10 12:22:58;;;;;;;;;;;;;;;19.19;65.00;101426.47;5020331;28;1465;-67
2021/01/10 12:25:24;;;;;;;;;;;;;;;19.18;65.09;101414.88;5021854;28;1454;-68
2021/01/10 12:27:50;;;;;;;;;;;;;;;19.16;64.71;101415.97;5018068;28;1413;-69
2021/01/10 12:30:16;;;;;;;;;;;;;;;19.13;65.34;101400.13;5018061;28;1415;-58
2021/01/10 12:32:41;;;;;;;;;;;;;;;19.15;65.27;101416.94;5015357;28;1309;-67
2021/01/10 12:35:08;;;;;;;;;;;;;;;19.07;65.19;101412.19;5018137;28;1465;-68
2021/01/10 12:37:35;;;;;;;;;;;;;;;19.07;65.39;101421.06;5019238;28;1957;-58
2021/01/10 12:40:00;;;;;;;;;;;;;;;19.16;65.32;101432.91;5014405;28;12182;-67
2021/01/10 12:42:26;;;;;;;;;;;;;;;19.16;65.25;101432.03;5018467;28;1485;-58
2021/01/10 12:44:51;;;;;;;;;;;;;;;19.08;65.32;101425.47;5016628;28;1422;-64
2021/01/10 12:47:17;;;;;;;;;;;;;;;19.07;65.82;101421.06;5016680;28;2660;-67
2021/01/10 12:49:43;;;;;;;;;;;;;;;19.11;65.25;101418.16;5007192;28;3027;-68
2021/01/10 12:52:08;;;;;;;;;;;;;;;19.05;65.28;101393.53;5019223;28;1457;-67
2021/01/10 12:54:34;;;;;;;;;;;;;;;19.04;65.55;101397.19;5021740;28;1541;-66